Time;durP1;ratioP1;P1;durP2;ratioP2;P2;SDS_P1;SDS_P2;PMS_P1;PMS_P2;Temp;Humidity;BMP_temperature;BMP_pressure;BME280_temperature;BME280_humidity;BME280_pressure;Samples;Min_cycle;Max_cycle;Signal;HPM_P1;HPM_P2
2023/03/09 00:00:52;;;;;;;5.00;1.70;;;;;;;;;;5070232;28;20031;-70
2023/03/09 00:03:18;;;;;;;3.95;1.33;;;;;;;;;;5070312;28;20145;-68
2023/03/09 00:05:51;;;;;;;6.10;1.70;;;;;;;;;;5070689;28;20066;-71
2023/03/09 00:08:16;;;;;;;7.07;1.60;;;;;;;;;;5070271;28;20651;-70
2023/03/09 00:10:42;;;;;;;5.95;1.60;;;;;;;;;;5070261;28;20036;-70
2023/03/09 00:13:07;;;;;;;6.88;1.85;;;;;;;;;;5070367;28;20107;-70
2023/03/09 00:15:33;;;;;;;7.68;1.70;;;;;;;;;;5083675;28;20028;-72
2023/03/09 00:17:59;;;;;;;8.95;1.92;;;;;;;;;;5090696;28;20471;-70
2023/03/09 00:20:24;;;;;;;7.43;1.60;;;;;;;;;;5090239;28;20054;-70
2023/03/09 00:22:51;;;;;;;5.80;1.42;;;;;;;;;;5090237;28;20032;-69
2023/03/09 00:25:18;;;;;;;5.13;1.40;;;;;;;;;;5090080;28;20039;-71
2023/03/09 00:27:48;;;;;;;5.75;1.80;;;;;;;;;;5090383;28;20119;-70
2023/03/09 00:30:14;;;;;;;6.95;1.65;;;;;;;;;;5089849;28;20024;-71
2023/03/09 00:32:39;;;;;;;5.47;1.48;;;;;;;;;;5090234;28;20024;-70
2023/03/09 00:35:05;;;;;;;7.10;1.50;;;;;;;;;;5090166;28;20023;-72
2023/03/09 00:37:31;;;;;;;5.05;1.48;;;;;;;;;;5090148;28;20035;-69
2023/03/09 00:39:57;;;;;;;8.43;1.50;;;;;;;;;;5089638;28;20024;-70
2023/03/09 00:42:22;;;;;;;6.15;1.60;;;;;;;;;;5089938;28;20031;-70
2023/03/09 00:44:48;;;;;;;5.40;1.27;;;;;;;;;;5089326;28;20020;-70
2023/03/09 00:47:13;;;;;;;9.18;1.55;;;;;;;;;;5090010;28;20056;-70
2023/03/09 00:49:38;;;;;;;9.85;1.50;;;;;;;;;;5089854;28;20451;-70
2023/03/09 00:52:05;;;;;;;7.00;1.40;;;;;;;;;;5089938;28;20034;-71
2023/03/09 00:54:30;;;;;;;7.13;1.50;;;;;;;;;;5089582;28;20032;-70
2023/03/09 00:56:55;;;;;;;4.53;1.45;;;;;;;;;;5089616;28;20099;-71
2023/03/09 00:59:21;;;;;;;4.53;1.20;;;;;;;;;;5089487;28;20550;-69
2023/03/09 01:01:46;;;;;;;7.10;1.30;;;;;;;;;;5089517;28;20024;-70
2023/03/09 01:04:11;;;;;;;6.90;1.30;;;;;;;;;;5089756;28;20659;-69
2023/03/09 01:06:37;;;;;;;5.95;1.30;;;;;;;;;;5089616;28;20023;-70
2023/03/09 01:09:03;;;;;;;6.97;1.60;;;;;;;;;;5089591;28;20127;-71
2023/03/09 01:11:29;;;;;;;5.85;1.30;;;;;;;;;;5089545;28;20035;-72
2023/03/09 01:13:54;;;;;;;6.07;1.38;;;;;;;;;;5089073;28;20440;-71
2023/03/09 01:16:19;;;;;;;6.72;1.30;;;;;;;;;;5089017;28;20032;-72
2023/03/09 01:18:45;;;;;;;7.57;1.40;;;;;;;;;;5089745;28;20024;-70
2023/03/09 01:21:10;;;;;;;4.88;1.25;;;;;;;;;;5089374;28;20064;-75
2023/03/09 01:23:37;;;;;;;5.97;1.42;;;;;;;;;;5089364;28;20039;-73
2023/03/09 01:26:04;;;;;;;5.65;1.27;;;;;;;;;;5089236;28;20085;-71
2023/03/09 01:28:29;;;;;;;6.10;1.50;;;;;;;;;;5071037;28;20547;-73
2023/03/09 01:30:55;;;;;;;7.40;1.50;;;;;;;;;;5089281;28;20124;-71
2023/03/09 01:33:20;;;;;;;7.15;1.50;;;;;;;;;;5089165;28;20070;-70
2023/03/09 01:35:46;;;;;;;6.25;1.58;;;;;;;;;;5089152;28;20492;-69
2023/03/09 01:38:11;;;;;;;8.18;1.77;;;;;;;;;;5089333;28;20032;-70
2023/03/09 01:40:37;;;;;;;7.78;1.70;;;;;;;;;;5090976;28;20028;-72
2023/03/09 01:43:26;;;;;;;8.00;1.40;;;;;;;;;;5093764;28;20035;-70
2023/03/09 01:46:34;;;;;;;8.07;1.55;;;;;;;;;;5092893;28;20108;-71
2023/03/09 01:49:11;;;;;;;3.75;1.13;;;;;;;;;;4991378;28;20034;-71
2023/03/09 01:51:43;;;;;;;5.15;1.27;;;;;;;;;;5084807;28;20396;-71
2023/03/09 01:54:14;;;;;;;5.30;1.50;;;;;;;;;;5093146;28;20056;-71
2023/03/09 01:56:42;;;;;;;4.90;1.30;;;;;;;;;;5093242;28;20623;-71
2023/03/09 01:59:08;;;;;;;7.45;1.58;;;;;;;;;;5092954;28;20020;-70
2023/03/09 02:01:36;;;;;;;7.40;1.90;;;;;;;;;;5093159;28;20051;-72
2023/03/09 02:04:11;;;;;;;5.88;1.30;;;;;;;;;;5092957;28;20107;-70
2023/03/09 02:06:36;;;;;;;6.55;1.40;;;;;;;;;;5092916;28;20505;-71
2023/03/09 02:09:04;;;;;;;7.32;1.40;;;;;;;;;;5092812;28;20637;-71
2023/03/09 02:11:30;;;;;;;8.55;2.08;;;;;;;;;;5092704;28;20074;-71
2023/03/09 02:13:55;;;;;;;6.82;1.40;;;;;;;;;;5092426;28;20056;-70
2023/03/09 02:16:21;;;;;;;6.47;1.70;;;;;;;;;;5092675;28;20050;-71
2023/03/09 02:18:46;;;;;;;10.82;1.58;;;;;;;;;;5074691;28;20040;-71
2023/03/09 02:21:21;;;;;;;10.30;1.67;;;;;;;;;;5092732;28;20065;-71
2023/03/09 02:23:56;;;;;;;12.35;2.22;;;;;;;;;;5092409;28;20028;-70
2023/03/09 02:26:43;;;;;;;11.60;2.10;;;;;;;;;;5092427;28;20089;-70
2023/03/09 02:29:09;;;;;;;13.38;2.92;;;;;;;;;;5092073;28;20473;-70
2023/03/09 02:31:35;;;;;;;10.68;1.95;;;;;;;;;;5074098;28;20056;-70
2023/03/09 02:34:00;;;;;;;10.52;1.90;;;;;;;;;;5092524;28;20472;-71
2023/03/09 02:36:26;;;;;;;10.60;1.98;;;;;;;;;;5092384;28;20031;-71
2023/03/09 02:38:52;;;;;;;9.77;1.85;;;;;;;;;;5092611;28;20044;-70
2023/03/09 02:41:19;;;;;;;10.20;1.80;;;;;;;;;;5092148;28;20024;-70
2023/03/09 02:43:50;;;;;;;8.93;1.92;;;;;;;;;;5091757;28;20030;-71
2023/03/09 02:46:16;;;;;;;8.13;2.33;;;;;;;;;;5091971;28;20063;-71
2023/03/09 02:48:41;;;;;;;8.63;2.28;;;;;;;;;;5092227;28;20058;-72
2023/03/09 02:51:07;;;;;;;11.02;1.98;;;;;;;;;;5091644;28;20028;-70
2023/03/09 02:53:34;;;;;;;8.95;2.03;;;;;;;;;;5091316;28;20058;-70
2023/03/09 02:55:59;;;;;;;7.25;1.40;;;;;;;;;;5092313;28;20024;-71
2023/03/09 02:58:25;;;;;;;8.82;1.88;;;;;;;;;;5091969;28;20034;-70
2023/03/09 03:00:50;;;;;;;9.13;1.85;;;;;;;;;;5091880;28;20058;-70
2023/03/09 03:03:19;;;;;;;9.02;1.83;;;;;;;;;;5091671;28;20028;-71
2023/03/09 03:05:45;;;;;;;7.07;1.70;;;;;;;;;;5091539;28;20021;-70
2023/03/09 03:08:11;;;;;;;6.78;1.75;;;;;;;;;;5091575;28;20040;-70
2023/03/09 03:10:36;;;;;;;8.25;2.00;;;;;;;;;;5073762;28;20472;-71
2023/03/09 03:13:02;;;;;;;9.18;1.70;;;;;;;;;;5091790;28;20024;-70
2023/03/09 03:15:27;;;;;;;9.10;1.75;;;;;;;;;;5091419;28;20479;-70
2023/03/09 03:17:52;;;;;;;10.65;1.80;;;;;;;;;;5091486;28;20036;-70
2023/03/09 03:20:18;;;;;;;9.80;1.83;;;;;;;;;;5091548;28;20073;-71
2023/03/09 03:22:43;;;;;;;9.73;1.65;;;;;;;;;;5091424;28;20060;-70
2023/03/09 03:25:10;;;;;;;9.95;1.90;;;;;;;;;;5091608;28;20027;-72
2023/03/09 03:27:35;;;;;;;10.80;1.80;;;;;;;;;;5091264;28;20400;-70
2023/03/09 03:30:02;;;;;;;9.10;1.88;;;;;;;;;;5091398;28;20031;-70
2023/03/09 03:32:27;;;;;;;7.90;1.83;;;;;;;;;;5091291;28;20028;-70
2023/03/09 03:34:53;;;;;;;8.48;1.63;;;;;;;;;;5091256;28;20024;-70
2023/03/09 03:37:18;;;;;;;7.22;1.60;;;;;;;;;;5091007;28;20020;-70
2023/03/09 03:39:44;;;;;;;9.55;1.90;;;;;;;;;;5091183;28;20035;-70
2023/03/09 03:42:09;;;;;;;9.98;2.03;;;;;;;;;;5091009;28;20119;-71
2023/03/09 03:44:35;;;;;;;11.63;2.00;;;;;;;;;;5090903;28;20024;-71
2023/03/09 03:47:00;;;;;;;9.07;1.95;;;;;;;;;;5091067;28;20055;-71
2023/03/09 03:49:26;;;;;;;11.50;2.10;;;;;;;;;;5091011;28;20039;-72
2023/03/09 03:51:52;;;;;;;11.77;1.90;;;;;;;;;;5090963;28;20115;-71
2023/03/09 03:54:17;;;;;;;8.38;2.03;;;;;;;;;;5090644;28;20028;-71
2023/03/09 03:56:42;;;;;;;11.13;1.90;;;;;;;;;;5090706;28;20113;-70
2023/03/09 03:59:08;;;;;;;9.65;2.10;;;;;;;;;;5090353;28;20028;-70
2023/03/09 04:01:33;;;;;;;9.73;1.85;;;;;;;;;;5090900;28;20027;-70
2023/03/09 04:03:59;;;;;;;9.27;1.88;;;;;;;;;;5090609;28;20662;-70
2023/03/09 04:06:24;;;;;;;13.93;2.42;;;;;;;;;;5099003;28;20476;-72
2023/03/09 04:08:49;;;;;;;9.25;1.83;;;;;;;;;;5090454;28;20067;-71
2023/03/09 04:11:15;;;;;;;8.50;1.98;;;;;;;;;;5090732;28;20020;-71
2023/03/09 04:13:40;;;;;;;10.32;2.13;;;;;;;;;;5089932;28;20464;-71
2023/03/09 04:16:06;;;;;;;11.30;2.20;;;;;;;;;;5090277;28;20024;-70
2023/03/09 04:18:31;;;;;;;11.93;2.40;;;;;;;;;;5090295;28;20020;-70
2023/03/09 04:20:57;;;;;;;7.53;2.55;;;;;;;;;;5090578;28;20535;-71
2023/03/09 04:23:22;;;;;;;9.90;2.67;;;;;;;;;;5090209;28;20028;-71
2023/03/09 04:25:55;;;;;;;12.93;2.78;;;;;;;;;;5090296;28;20020;-71
2023/03/09 04:28:21;;;;;;;10.15;2.50;;;;;;;;;;5090050;28;20036;-71
2023/03/09 04:30:46;;;;;;;9.00;2.50;;;;;;;;;;5071617;28;20046;-71
2023/03/09 04:33:12;;;;;;;11.45;2.78;;;;;;;;;;5089863;28;20228;-70
2023/03/09 04:35:37;;;;;;;9.45;2.70;;;;;;;;;;5090147;28;20035;-71
2023/03/09 04:38:03;;;;;;;11.65;2.22;;;;;;;;;;5089987;28;20036;-70
2023/03/09 04:40:29;;;;;;;9.68;2.20;;;;;;;;;;5090349;28;20020;-70
2023/03/09 04:42:54;;;;;;;9.77;2.30;;;;;;;;;;5090194;28;20085;-70
2023/03/09 04:45:19;;;;;;;13.55;2.25;;;;;;;;;;5089648;28;20028;-70
2023/03/09 04:47:45;;;;;;;13.40;2.67;;;;;;;;;;5089640;28;20399;-71
2023/03/09 04:50:11;;;;;;;11.18;2.50;;;;;;;;;;5089882;28;20028;-70
2023/03/09 04:52:37;;;;;;;7.53;2.38;;;;;;;;;;5071454;28;20028;-71
2023/03/09 04:55:02;;;;;;;11.45;2.53;;;;;;;;;;5089857;28;20474;-71
2023/03/09 04:57:28;;;;;;;11.60;2.10;;;;;;;;;;5089887;28;20086;-71
2023/03/09 04:59:53;;;;;;;9.65;2.40;;;;;;;;;;5089499;28;20024;-71
2023/03/09 05:02:19;;;;;;;12.10;2.30;;;;;;;;;;5089900;28;20031;-71
2023/03/09 05:04:44;;;;;;;12.52;2.63;;;;;;;;;;5089329;28;20028;-70
2023/03/09 05:07:10;;;;;;;9.73;2.22;;;;;;;;;;5089677;28;20036;-71
2023/03/09 05:09:35;;;;;;;13.20;2.72;;;;;;;;;;5089299;28;20032;-70
2023/03/09 05:12:00;;;;;;;9.45;2.30;;;;;;;;;;5089772;28;20059;-71
2023/03/09 05:14:26;;;;;;;8.35;2.20;;;;;;;;;;5088640;28;20383;-71
2023/03/09 05:16:52;;;;;;;8.38;1.98;;;;;;;;;;5089417;28;20028;-71
2023/03/09 05:19:18;;;;;;;11.52;1.98;;;;;;;;;;5089515;28;20062;-71
2023/03/09 05:21:44;;;;;;;9.23;2.05;;;;;;;;;;5071271;28;20035;-71
2023/03/09 05:24:09;;;;;;;11.70;2.20;;;;;;;;;;5089365;28;20032;-71
2023/03/09 05:26:34;;;;;;;12.38;1.92;;;;;;;;;;5089361;28;20652;-71
2023/03/09 05:29:00;;;;;;;13.20;2.30;;;;;;;;;;5088888;28;20474;-70
2023/03/09 05:31:25;;;;;;;11.00;1.95;;;;;;;;;;5089551;28;20020;-71
2023/03/09 05:33:52;;;;;;;11.75;2.47;;;;;;;;;;5089272;28;20067;-71
2023/03/09 05:36:20;;;;;;;9.75;2.00;;;;;;;;;;5089554;28;20113;-70
2023/03/09 05:38:48;;;;;;;10.55;2.20;;;;;;;;;;5088980;28;20036;-70
2023/03/09 05:41:13;;;;;;;9.80;2.00;;;;;;;;;;5089203;28;20119;-70
2023/03/09 05:43:41;;;;;;;11.07;1.95;;;;;;;;;;5088772;28;20601;-71
2023/03/09 05:46:08;;;;;;;12.38;2.35;;;;;;;;;;5089043;28;20027;-71
2023/03/09 05:48:34;;;;;;;8.90;2.40;;;;;;;;;;5089049;28;20032;-70
2023/03/09 05:51:00;;;;;;;11.30;2.40;;;;;;;;;;5089319;28;20035;-71
2023/03/09 05:53:25;;;;;;;10.02;2.40;;;;;;;;;;5088968;28;20484;-71
2023/03/09 05:55:52;;;;;;;9.93;2.30;;;;;;;;;;5089101;28;20048;-71
2023/03/09 05:58:17;;;;;;;10.63;2.22;;;;;;;;;;5088832;28;20678;-70
2023/03/09 06:00:43;;;;;;;9.77;2.38;;;;;;;;;;5088704;28;20040;-71
2023/03/09 06:03:08;;;;;;;15.48;2.63;;;;;;;;;;5071001;28;20379;-71
2023/03/09 06:05:33;;;;;;;12.00;2.97;;;;;;;;;;5088812;28;20032;-71
2023/03/09 06:07:59;;;;;;;10.07;2.53;;;;;;;;;;5089264;28;20083;-71
2023/03/09 06:10:25;;;;;;;8.70;2.05;;;;;;;;;;5088918;28;20424;-71
2023/03/09 06:12:50;;;;;;;8.32;2.17;;;;;;;;;;5089175;28;20059;-71
2023/03/09 06:15:16;;;;;;;8.68;2.20;;;;;;;;;;5088222;28;20027;-71
2023/03/09 06:17:41;;;;;;;9.88;2.75;;;;;;;;;;5088796;28;20024;-71
2023/03/09 06:20:08;;;;;;;9.20;2.33;;;;;;;;;;5088762;28;20419;-72
2023/03/09 06:22:34;;;;;;;10.35;2.33;;;;;;;;;;5089005;28;20024;-70
2023/03/09 06:24:59;;;;;;;11.68;2.42;;;;;;;;;;5088701;28;20042;-71
2023/03/09 06:27:25;;;;;;;9.52;2.20;;;;;;;;;;5091394;28;20527;-71
2023/03/09 06:29:53;;;;;;;8.07;2.63;;;;;;;;;;5092175;28;20021;-70
2023/03/09 06:32:18;;;;;;;10.68;2.45;;;;;;;;;;5092545;28;20403;-72
2023/03/09 06:34:44;;;;;;;9.70;2.60;;;;;;;;;;5091962;28;20024;-71
2023/03/09 06:37:09;;;;;;;14.63;2.60;;;;;;;;;;5092309;28;20055;-71
2023/03/09 06:39:35;;;;;;;8.93;3.00;;;;;;;;;;5092336;28;20267;-73
2023/03/09 06:42:00;;;;;;;8.88;2.67;;;;;;;;;;5092476;28;20074;-71
2023/03/09 06:44:25;;;;;;;9.55;2.80;;;;;;;;;;5091643;28;20028;-70
2023/03/09 06:46:51;;;;;;;6.55;2.55;;;;;;;;;;5092056;28;20425;-71
2023/03/09 06:49:16;;;;;;;8.38;2.80;;;;;;;;;;5092153;28;20020;-71
2023/03/09 06:51:42;;;;;;;12.60;3.30;;;;;;;;;;5091979;28;20631;-70
2023/03/09 06:54:07;;;;;;;12.52;3.20;;;;;;;;;;5091822;28;20020;-70
2023/03/09 06:56:33;;;;;;;12.35;3.70;;;;;;;;;;5092141;28;20024;-71
2023/03/09 06:58:58;;;;;;;11.52;3.10;;;;;;;;;;5073714;28;20022;-71
2023/03/09 07:01:23;;;;;;;14.30;3.08;;;;;;;;;;5096771;28;20028;-69
2023/03/09 07:03:49;;;;;;;10.23;3.17;;;;;;;;;;5092092;28;20027;-72
2023/03/09 07:06:14;;;;;;;9.15;2.97;;;;;;;;;;5091496;28;20028;-71
2023/03/09 07:08:40;;;;;;;13.32;3.53;;;;;;;;;;5091548;28;20032;-70
2023/03/09 07:11:05;;;;;;;13.32;3.40;;;;;;;;;;5091165;28;20056;-71
2023/03/09 07:13:32;;;;;;;13.75;3.22;;;;;;;;;;5091382;28;20027;-70
2023/03/09 07:16:00;;;;;;;9.40;2.97;;;;;;;;;;5091303;28;20043;-71
2023/03/09 07:18:26;;;;;;;6.63;2.80;;;;;;;;;;5091519;28;20073;-70
2023/03/09 07:20:51;;;;;;;12.50;3.20;;;;;;;;;;5091546;28;20032;-70
2023/03/09 07:23:16;;;;;;;10.32;3.30;;;;;;;;;;5073697;28;20175;-70
2023/03/09 07:25:42;;;;;;;10.55;3.30;;;;;;;;;;5090860;28;20073;-70
2023/03/09 07:28:07;;;;;;;11.30;3.58;;;;;;;;;;5091304;28;20376;-70
2023/03/09 07:30:33;;;;;;;12.95;3.30;;;;;;;;;;5090928;28;20032;-70
2023/03/09 07:32:59;;;;;;;13.30;3.10;;;;;;;;;;5091422;28;20028;-70
2023/03/09 07:35:26;;;;;;;13.18;3.35;;;;;;;;;;5091036;28;20035;-70
2023/03/09 07:37:51;;;;;;;9.95;3.13;;;;;;;;;;5090497;28;20038;-70
2023/03/09 07:40:17;;;;;;;8.13;3.13;;;;;;;;;;5091177;28;20095;-70
2023/03/09 07:42:42;;;;;;;12.40;3.33;;;;;;;;;;5091710;28;20058;-70
2023/03/09 07:45:08;;;;;;;10.95;3.20;;;;;;;;;;5091758;28;20081;-70
2023/03/09 07:47:34;;;;;;;9.82;3.00;;;;;;;;;;5091800;28;20119;-73
2023/03/09 07:49:59;;;;;;;10.02;3.20;;;;;;;;;;5091286;28;20103;-71
2023/03/09 07:52:30;;;;;;;8.93;2.60;;;;;;;;;;5091678;28;20131;-70
2023/03/09 07:54:57;;;;;;;11.43;3.20;;;;;;;;;;5091647;28;20035;-70
2023/03/09 07:57:23;;;;;;;8.95;3.08;;;;;;;;;;5082875;28;20500;-70
2023/03/09 07:59:54;;;;;;;11.02;3.10;;;;;;;;;;5083698;28;20492;-69
2023/03/09 08:02:20;;;;;;;9.82;3.55;;;;;;;;;;5070329;28;20106;-70
2023/03/09 08:04:45;;;;;;;12.70;3.72;;;;;;;;;;5083625;28;20036;-70
2023/03/09 08:07:11;;;;;;;12.07;3.33;;;;;;;;;;5092797;28;20031;-69
2023/03/09 08:09:37;;;;;;;11.23;3.50;;;;;;;;;;5090653;28;20044;-69
2023/03/09 08:12:03;;;;;;;9.75;3.63;;;;;;;;;;5091544;28;20032;-73
2023/03/09 08:14:28;;;;;;;12.05;3.42;;;;;;;;;;5108116;28;20572;-70
2023/03/09 08:16:54;;;;;;;11.88;3.83;;;;;;;;;;5110643;28;20058;-70
2023/03/09 08:19:21;;;;;;;10.63;3.95;;;;;;;;;;5110696;28;20063;-73
2023/03/09 08:21:47;;;;;;;12.57;3.60;;;;;;;;;;5110612;28;20051;-73
2023/03/09 08:24:14;;;;;;;13.75;3.80;;;;;;;;;;5111750;28;20031;-73
2023/03/09 08:26:40;;;;;;;9.38;3.58;;;;;;;;;;5111226;28;20079;-74
2023/03/09 08:29:05;;;;;;;11.25;3.70;;;;;;;;;;5108693;28;20036;-71
2023/03/09 08:31:31;;;;;;;13.55;4.20;;;;;;;;;;5089812;28;20024;-72
2023/03/09 08:33:56;;;;;;;12.05;3.53;;;;;;;;;;5095384;28;20032;-74
2023/03/09 08:36:24;;;;;;;11.27;3.47;;;;;;;;;;5100267;28;20094;-75
2023/03/09 08:38:49;;;;;;;13.27;4.00;;;;;;;;;;5073039;28;20063;-68
2023/03/09 08:41:15;;;;;;;11.57;3.92;;;;;;;;;;5088535;28;20602;-68
2023/03/09 08:43:41;;;;;;;11.77;3.65;;;;;;;;;;5089832;28;20498;-68
2023/03/09 08:46:07;;;;;;;12.82;3.40;;;;;;;;;;5089850;28;20043;-69
2023/03/09 08:48:33;;;;;;;12.50;3.75;;;;;;;;;;5085111;28;20040;-70
2023/03/09 08:51:05;;;;;;;13.38;3.22;;;;;;;;;;5079747;28;20088;-69
2023/03/09 08:53:32;;;;;;;12.52;3.50;;;;;;;;;;5078088;28;20092;-73
2023/03/09 08:55:57;;;;;;;13.43;3.50;;;;;;;;;;5069195;28;20048;-69
2023/03/09 08:58:23;;;;;;;10.82;4.25;;;;;;;;;;5075536;28;20679;-69
2023/03/09 09:00:48;;;;;;;11.88;3.83;;;;;;;;;;5075401;28;20016;-69
2023/03/09 09:03:14;;;;;;;13.07;3.65;;;;;;;;;;5089649;28;20023;-68
2023/03/09 09:05:40;;;;;;;13.45;4.00;;;;;;;;;;5085470;28;20020;-69
2023/03/09 09:08:05;;;;;;;15.30;3.67;;;;;;;;;;5074638;28;20051;-69
2023/03/09 09:10:31;;;;;;;12.23;3.42;;;;;;;;;;5070334;28;20016;-68
2023/03/09 09:12:56;;;;;;;13.40;3.83;;;;;;;;;;5071707;28;20100;-68
2023/03/09 09:15:21;;;;;;;11.77;3.88;;;;;;;;;;5081559;28;20024;-69
2023/03/09 09:17:47;;;;;;;10.05;3.95;;;;;;;;;;5068994;28;20185;-68
2023/03/09 09:20:13;;;;;;;10.57;3.60;;;;;;;;;;5075090;28;20020;-68
2023/03/09 09:22:41;;;;;;;12.27;3.75;;;;;;;;;;5080920;28;20017;-68
2023/03/09 09:25:08;;;;;;;13.20;3.88;;;;;;;;;;5080718;28;20024;-70
2023/03/09 09:27:34;;;;;;;18.05;4.00;;;;;;;;;;5062529;28;20060;-69
2023/03/09 09:30:00;;;;;;;12.25;4.05;;;;;;;;;;5080302;28;20028;-69
2023/03/09 09:32:25;;;;;;;13.93;3.63;;;;;;;;;;5069353;28;20108;-69
2023/03/09 09:34:52;;;;;;;13.25;3.58;;;;;;;;;;5078747;28;20035;-68
2023/03/09 09:37:18;;;;;;;13.88;3.20;;;;;;;;;;5072737;28;20025;-69
2023/03/09 09:39:44;;;;;;;14.70;3.22;;;;;;;;;;5073222;28;20025;-68
2023/03/09 09:42:23;;;;;;;12.27;3.50;;;;;;;;;;5059987;28;20125;-68
2023/03/09 09:44:52;;;;;;;13.82;3.97;;;;;;;;;;5073679;28;20027;-69
2023/03/09 09:47:21;;;;;;;13.55;3.30;;;;;;;;;;5068569;28;20029;-68
2023/03/09 09:49:50;;;;;;;11.63;3.60;;;;;;;;;;5071155;28;20131;-68
2023/03/09 09:52:21;;;;;;;14.00;3.35;;;;;;;;;;5071160;28;20060;-70
2023/03/09 09:54:55;;;;;;;13.25;3.30;;;;;;;;;;5099014;28;20051;-68
2023/03/09 09:57:26;;;;;;;13.20;3.50;;;;;;;;;;5091784;28;20186;-68
2023/03/09 10:00:00;;;;;;;16.95;4.03;;;;;;;;;;5075338;28;20029;-69
2023/03/09 10:02:40;;;;;;;12.35;3.47;;;;;;;;;;5085574;28;20031;-69
2023/03/09 10:05:14;;;;;;;16.00;3.60;;;;;;;;;;5097656;28;20024;-69
2023/03/09 10:07:41;;;;;;;11.77;3.25;;;;;;;;;;5082005;28;20048;-69
2023/03/09 10:10:16;;;;;;;13.63;3.72;;;;;;;;;;5087942;28;20032;-70
2023/03/09 10:12:43;;;;;;;10.90;3.10;;;;;;;;;;5093256;28;20090;-68
2023/03/09 10:15:22;;;;;;;15.90;3.15;;;;;;;;;;5082051;28;20024;-68
2023/03/09 10:17:54;;;;;;;13.57;3.75;;;;;;;;;;5084181;28;20016;-70
2023/03/09 10:20:38;;;;;;;16.65;3.60;;;;;;;;;;5101719;28;20044;-69
2023/03/09 10:23:24;;;;;;;13.85;3.75;;;;;;;;;;5078227;28;20040;-68
2023/03/09 10:25:55;;;;;;;16.52;3.92;;;;;;;;;;5076409;28;20480;-67
2023/03/09 10:28:24;;;;;;;13.32;3.72;;;;;;;;;;5063057;28;20086;-67
2023/03/09 10:31:02;;;;;;;14.13;3.60;;;;;;;;;;5082824;28;20051;-68
2023/03/09 10:33:45;;;;;;;16.05;4.50;;;;;;;;;;5086314;28;20499;-68
2023/03/09 10:36:30;;;;;;;19.23;4.47;;;;;;;;;;5079446;28;20392;-68
2023/03/09 10:39:02;;;;;;;15.77;3.55;;;;;;;;;;5086148;28;20029;-67
2023/03/09 10:41:28;;;;;;;16.35;3.88;;;;;;;;;;5097516;28;20361;-70
2023/03/09 10:43:57;;;;;;;10.38;3.25;;;;;;;;;;5084726;28;20491;-69
2023/03/09 10:46:24;;;;;;;14.57;3.60;;;;;;;;;;5074232;28;20036;-68
2023/03/09 10:49:06;;;;;;;18.23;3.63;;;;;;;;;;5070468;28;20104;-67
2023/03/09 10:51:43;;;;;;;14.85;3.65;;;;;;;;;;5072798;28;20059;-67
2023/03/09 10:54:32;;;;;;;13.50;3.65;;;;;;;;;;5068444;28;20044;-67
2023/03/09 10:56:58;;;;;;;12.95;2.97;;;;;;;;;;5067485;28;20029;-69
2023/03/09 10:59:28;;;;;;;14.82;3.15;;;;;;;;;;5067833;28;20031;-68
2023/03/09 11:01:56;;;;;;;;;;;;;;;;;;5066866;28;20032;-69
2023/03/09 11:04:21;;;;;;;10.70;2.90;;;;;;;;;;5068785;28;19912;-68
2023/03/09 11:06:53;;;;;;;14.63;3.47;;;;;;;;;;5068927;28;20412;-69
2023/03/09 11:09:21;;;;;;;14.68;2.92;;;;;;;;;;5070628;28;20106;-68
2023/03/09 11:11:48;;;;;;;16.15;3.75;;;;;;;;;;5071376;28;20032;-68
2023/03/09 11:14:29;;;;;;;12.50;2.90;;;;;;;;;;5069797;28;20047;-68
2023/03/09 11:16:59;;;;;;;;;;;;;;;;;;5070741;28;20025;-67
2023/03/09 11:19:25;;;;;;;14.30;2.80;;;;;;;;;;5071348;28;19920;-67
2023/03/09 11:22:08;;;;;;;12.85;2.30;;;;;;;;;;5071087;28;20040;-68
2023/03/09 11:24:42;;;;;;;13.27;2.50;;;;;;;;;;5073097;28;20044;-68
2023/03/09 11:27:16;;;;;;;15.45;2.67;;;;;;;;;;5071210;28;20059;-68
2023/03/09 11:30:06;;;;;;;13.70;2.20;;;;;;;;;;5070766;28;20032;-71
2023/03/09 11:32:31;;;;;;;11.63;2.40;;;;;;;;;;5071098;28;20024;-67
2023/03/09 11:34:59;;;;;;;10.23;2.03;;;;;;;;;;5071125;28;20021;-71
2023/03/09 11:37:39;;;;;;;13.10;2.00;;;;;;;;;;5070953;28;20031;-69
2023/03/09 11:40:13;;;;;;;14.13;2.20;;;;;;;;;;5071117;28;20530;-69
2023/03/09 11:42:45;;;;;;;10.40;2.30;;;;;;;;;;5070986;28;20016;-73
2023/03/09 11:45:20;;;;;;;12.57;2.47;;;;;;;;;;5070691;28;20028;-68
2023/03/09 11:47:52;;;;;;;14.07;2.22;;;;;;;;;;5052706;28;20025;-68
2023/03/09 11:50:23;;;;;;;9.73;1.98;;;;;;;;;;5070688;28;20058;-68
2023/03/09 11:52:59;;;;;;;9.82;2.17;;;;;;;;;;5070677;28;20109;-68
2023/03/09 11:55:30;;;;;;;11.95;1.90;;;;;;;;;;5070912;28;20040;-68
2023/03/09 11:58:00;;;;;;;10.18;2.25;;;;;;;;;;5070342;28;20039;-68
2023/03/09 12:00:27;;;;;;;13.50;2.33;;;;;;;;;;5070658;28;20036;-71
2023/03/09 12:03:04;;;;;;;12.77;1.83;;;;;;;;;;5070458;28;20035;-68
2023/03/09 12:05:36;;;;;;;13.80;2.20;;;;;;;;;;5070917;28;20025;-68
2023/03/09 12:08:12;;;;;;;9.77;2.03;;;;;;;;;;5070095;28;20385;-69
2023/03/09 12:10:49;;;;;;;11.23;2.03;;;;;;;;;;5070504;28;20044;-70
2023/03/09 12:13:20;;;;;;;12.25;2.33;;;;;;;;;;5070234;28;20036;-68
2023/03/09 12:15:55;;;;;;;9.13;1.77;;;;;;;;;;5070447;28;20680;-69
2023/03/09 12:18:24;;;;;;;8.23;1.95;;;;;;;;;;5069969;28;20017;-69
2023/03/09 12:21:01;;;;;;;9.55;1.80;;;;;;;;;;5070237;28;20044;-71
2023/03/09 12:23:35;;;;;;;9.82;2.20;;;;;;;;;;5070039;28;20028;-71
2023/03/09 12:26:20;;;;;;;10.88;1.80;;;;;;;;;;5069895;28;20037;-67
2023/03/09 12:29:19;;;;;;;9.65;1.90;;;;;;;;;;5069312;28;20495;-73
2023/03/09 12:32:05;;;;;;;9.25;1.65;;;;;;;;;;5069876;28;20028;-69
2023/03/09 12:34:40;;;;;;;10.68;2.10;;;;;;;;;;5070063;28;20413;-68
2023/03/09 12:37:35;;;;;;;13.15;1.90;;;;;;;;;;5070178;28;20032;-68
2023/03/09 12:40:05;;;;;;;14.95;2.30;;;;;;;;;;5014688;28;20037;-71
2023/03/09 12:42:39;;;;;;;13.20;1.90;;;;;;;;;;5069943;28;20395;-68
2023/03/09 12:45:16;;;;;;;15.35;2.00;;;;;;;;;;5069559;28;20059;-68
2023/03/09 12:47:47;;;;;;;10.88;1.88;;;;;;;;;;5069480;28;20627;-69
2023/03/09 12:50:24;;;;;;;9.80;1.92;;;;;;;;;;5069393;28;20519;-68
2023/03/09 12:53:18;;;;;;;11.52;1.80;;;;;;;;;;5069776;28;20119;-68
2023/03/09 12:55:50;;;;;;;11.77;1.90;;;;;;;;;;5070165;28;20028;-68
2023/03/09 12:58:21;;;;;;;7.95;1.65;;;;;;;;;;5069290;28;20444;-68
2023/03/09 13:01:03;;;;;;;7.75;1.67;;;;;;;;;;5069641;28;20028;-69
2023/03/09 13:03:48;;;;;;;9.15;2.00;;;;;;;;;;5069157;28;20062;-68
2023/03/09 13:06:56;;;;;;;9.20;2.10;;;;;;;;;;5072336;28;20059;-67
2023/03/09 13:09:24;;;;;;;9.32;1.80;;;;;;;;;;5061172;28;20566;-68
2023/03/09 13:11:56;;;;;;;8.80;1.67;;;;;;;;;;5089930;28;20110;-67
2023/03/09 13:14:24;;;;;;;11.43;2.20;;;;;;;;;;5088952;28;20126;-68
2023/03/09 13:16:58;;;;;;;10.35;1.70;;;;;;;;;;5089652;28;20185;-67
2023/03/09 13:19:23;;;;;;;7.55;1.50;;;;;;;;;;5089153;28;20015;-67
2023/03/09 13:21:55;;;;;;;9.88;2.05;;;;;;;;;;5089410;28;20039;-68
2023/03/09 13:24:35;;;;;;;12.75;1.88;;;;;;;;;;5089119;28;20061;-68
2023/03/09 13:27:09;;;;;;;10.00;2.03;;;;;;;;;;5089320;28;20028;-71
2023/03/09 13:29:38;;;;;;;9.35;1.75;;;;;;;;;;5089244;28;20062;-76
2023/03/09 13:32:17;;;;;;;9.45;1.73;;;;;;;;;;5089765;28;20016;-69
2023/03/09 13:34:44;;;;;;;13.18;1.73;;;;;;;;;;5089313;28;20403;-68
2023/03/09 13:37:18;;;;;;;7.50;1.83;;;;;;;;;;5094797;28;20107;-68
2023/03/09 13:40:22;;;;;;;10.95;1.83;;;;;;;;;;5095624;28;20035;-67
2023/03/09 13:42:48;;;;;;;8.18;1.80;;;;;;;;;;5095951;28;20131;-68
2023/03/09 13:45:21;;;;;;;10.27;1.88;;;;;;;;;;5095557;28;20096;-68
2023/03/09 13:47:52;;;;;;;9.35;2.22;;;;;;;;;;5096200;28;20039;-67
2023/03/09 13:50:18;;;;;;;9.85;1.75;;;;;;;;;;5095805;28;20032;-68
2023/03/09 13:53:15;;;;;;;8.48;1.73;;;;;;;;;;5096061;28;20023;-67
2023/03/09 13:55:41;;;;;;;9.02;1.67;;;;;;;;;;5095444;28;20107;-68
2023/03/09 13:58:17;;;;;;;7.63;1.70;;;;;;;;;;5096809;28;20112;-67
2023/03/09 14:00:54;;;;;;;7.80;1.60;;;;;;;;;;5095140;28;20493;-69
2023/03/09 14:03:21;;;;;;;7.75;1.50;;;;;;;;;;5095867;28;20074;-68
2023/03/09 14:06:03;;;;;;;10.25;1.80;;;;;;;;;;5095741;28;20479;-68
2023/03/09 14:08:53;;;;;;;8.63;1.80;;;;;;;;;;5086855;28;20105;-70
2023/03/09 14:11:29;;;;;;;11.63;1.90;;;;;;;;;;5076962;28;20483;-68
2023/03/09 14:14:03;;;;;;;12.02;1.60;;;;;;;;;;5075044;28;20036;-68
2023/03/09 14:16:30;;;;;;;7.97;1.67;;;;;;;;;;5075855;28;20093;-68
2023/03/09 14:18:58;;;;;;;8.43;1.50;;;;;;;;;;5074950;28;20552;-69
2023/03/09 14:21:26;;;;;;;11.07;1.83;;;;;;;;;;5075447;28;20036;-67
2023/03/09 14:23:53;;;;;;;10.43;2.13;;;;;;;;;;5075470;28;20020;-68
2023/03/09 14:26:30;;;;;;;10.93;1.67;;;;;;;;;;5075137;28;20036;-68
2023/03/09 14:29:30;;;;;;;8.25;1.40;;;;;;;;;;5074853;28;20028;-67
2023/03/09 14:32:17;;;;;;;10.27;1.85;;;;;;;;;;5075338;28;20021;-67
2023/03/09 14:34:43;;;;;;;8.15;1.45;;;;;;;;;;5075147;28;20036;-68
2023/03/09 14:37:17;;;;;;;7.63;1.33;;;;;;;;;;5075318;28;20089;-68
2023/03/09 14:39:43;;;;;;;9.45;2.00;;;;;;;;;;5076231;28;20499;-67
2023/03/09 14:42:08;;;;;;;9.95;1.90;;;;;;;;;;5075448;28;20070;-68
2023/03/09 14:44:37;;;;;;;8.65;1.60;;;;;;;;;;5074712;28;20072;-68
2023/03/09 14:47:06;;;;;;;11.70;1.60;;;;;;;;;;5074728;28;20028;-68